IRM4587 OIAW-OIII
Flight info
| Callsign | IRM4587 |
|---|---|
| Flight time | 0h 54m |
| Altitude | 31000 |
| Route | EGVAX G667 SAV |
| Aircraft | RJ1H/M-SDFGIRWY/LB1 |
Departure
| Time | 2026-04-25 12:02 |
|---|---|
| Airport | Qasem Soleimani International Airport (OIAW) |
Arrival
| Time | 2026-04-25 12:57 |
|---|---|
| Airport | Mehrabad International Airport (OIII) |
| Time | Latitude | Longitude | Altitude | Speed | Heading |
|---|---|---|---|---|---|
| 2026-04-25 11:07 | 31.34369 | 48.74747 | 48 ft | 0 kts | 274° |
| 2026-04-25 11:58 | 31.34371 | 48.74739 | 67 ft | 3 kts | 289° |
| 2026-04-25 11:59 | 31.34396 | 48.74746 | 70 ft | 6 kts | 40° |
| 2026-04-25 11:59 | 31.34430 | 48.74765 | 73 ft | 5 kts | 342° |
| 2026-04-25 11:59 | 31.34451 | 48.74736 | 71 ft | 4 kts | 301° |
| 2026-04-25 12:00 | 31.34472 | 48.74699 | 74 ft | 3 kts | 305° |
| 2026-04-25 12:00 | 31.34486 | 48.74680 | 70 ft | 5 kts | 322° |
| 2026-04-25 12:00 | 31.34579 | 48.74720 | 71 ft | 7 kts | 34° |
| 2026-04-25 12:01 | 31.34586 | 48.74746 | 74 ft | 3 kts | 111° |
| 2026-04-25 12:01 | 31.34575 | 48.74767 | 69 ft | 0 kts | 124° |
| 2026-04-25 12:01 | 31.34540 | 48.74828 | 69 ft | 33 kts | 124° |
| 2026-04-25 12:01 | 31.34296 | 48.75247 | 67 ft | 89 kts | 124° |
| 2026-04-25 12:02 | 31.33301 | 48.76983 | 283 ft | 152 kts | 124° |
| 2026-04-25 12:02 | 31.32694 | 48.77981 | 804 ft | 148 kts | 124° |
| 2026-04-25 12:02 | 31.32149 | 48.78999 | 1303 ft | 153 kts | 109° |
| 2026-04-25 12:03 | 31.32082 | 48.80277 | 1626 ft | 155 kts | 73° |
| 2026-04-25 12:03 | 31.32656 | 48.81283 | 1999 ft | 156 kts | 43° |
| 2026-04-25 12:03 | 31.33564 | 48.82001 | 2250 ft | 155 kts | 26° |
| 2026-04-25 12:03 | 31.34579 | 48.82359 | 2570 ft | 156 kts | 14° |
| 2026-04-25 12:04 | 31.35672 | 48.82550 | 2859 ft | 155 kts | 7° |
| 2026-04-25 12:04 | 31.36742 | 48.82605 | 3190 ft | 159 kts | 1° |
| 2026-04-25 12:04 | 31.37841 | 48.82717 | 3469 ft | 156 kts | 32° |
| 2026-04-25 12:04 | 31.38645 | 48.83558 | 3678 ft | 164 kts | 45° |
| 2026-04-25 12:05 | 31.39560 | 48.84485 | 3765 ft | 183 kts | 41° |
| 2026-04-25 12:05 | 31.40597 | 48.85440 | 3861 ft | 196 kts | 40° |
| 2026-04-25 12:05 | 31.41691 | 48.86431 | 3933 ft | 207 kts | 39° |
| 2026-04-25 12:05 | 31.42838 | 48.87454 | 4211 ft | 208 kts | 38° |
| 2026-04-25 12:06 | 31.43996 | 48.88474 | 4675 ft | 209 kts | 38° |
| 2026-04-25 12:06 | 31.45169 | 48.89496 | 5148 ft | 211 kts | 37° |
| 2026-04-25 12:06 | 31.46356 | 48.90529 | 5629 ft | 214 kts | 37° |
| 2026-04-25 12:06 | 31.47551 | 48.91570 | 6169 ft | 214 kts | 37° |
| 2026-04-25 12:07 | 31.48754 | 48.92610 | 6677 ft | 215 kts | 36° |
| 2026-04-25 12:07 | 31.49961 | 48.93653 | 7132 ft | 219 kts | 36° |
| 2026-04-25 12:07 | 31.51232 | 48.94750 | 7376 ft | 234 kts | 36° |
| 2026-04-25 12:07 | 31.52572 | 48.95909 | 7557 ft | 251 kts | 36° |
| 2026-04-25 12:08 | 31.54024 | 48.97162 | 7732 ft | 267 kts | 36° |
| 2026-04-25 12:08 | 31.55420 | 48.98356 | 7909 ft | 279 kts | 36° |
| 2026-04-25 12:08 | 31.57023 | 48.99731 | 8116 ft | 291 kts | 36° |
| 2026-04-25 12:08 | 31.58675 | 49.01145 | 8475 ft | 295 kts | 36° |
| 2026-04-25 12:09 | 31.60337 | 49.02571 | 8890 ft | 298 kts | 36° |
| 2026-04-25 12:09 | 31.61991 | 49.03993 | 9316 ft | 300 kts | 36° |
| 2026-04-25 12:09 | 31.63678 | 49.05457 | 9770 ft | 303 kts | 36° |
| 2026-04-25 12:09 | 31.65380 | 49.06927 | 10243 ft | 305 kts | 36° |
| 2026-04-25 12:10 | 31.67084 | 49.08405 | 10686 ft | 307 kts | 36° |
| 2026-04-25 12:10 | 31.68824 | 49.09919 | 10961 ft | 317 kts | 36° |
| 2026-04-25 12:10 | 31.70636 | 49.11498 | 11051 ft | 332 kts | 36° |
| 2026-04-25 12:10 | 31.72588 | 49.13040 | 11141 ft | 343 kts | 25° |
| 2026-04-25 12:11 | 31.74802 | 49.13993 | 11426 ft | 344 kts | 15° |
| 2026-04-25 12:11 | 31.77108 | 49.14753 | 11769 ft | 346 kts | 13° |
| 2026-04-25 12:11 | 31.79449 | 49.15446 | 12122 ft | 347 kts | 12° |
| 2026-04-25 12:11 | 31.81800 | 49.16105 | 12479 ft | 349 kts | 11° |
| 2026-04-25 12:12 | 31.84169 | 49.16758 | 12833 ft | 350 kts | 11° |
| 2026-04-25 12:12 | 31.85740 | 49.17188 | 13086 ft | 351 kts | 11° |
| 2026-04-25 12:12 | 31.88937 | 49.18070 | 13591 ft | 353 kts | 11° |
| 2026-04-25 12:12 | 31.91330 | 49.18745 | 13936 ft | 355 kts | 11° |
| 2026-04-25 12:13 | 31.93726 | 49.19457 | 14244 ft | 357 kts | 11° |
| 2026-04-25 12:13 | 31.96114 | 49.20152 | 14552 ft | 359 kts | 11° |
| 2026-04-25 12:13 | 31.98581 | 49.20869 | 14848 ft | 361 kts | 11° |
| 2026-04-25 12:13 | 32.00988 | 49.21568 | 15145 ft | 363 kts | 11° |
| 2026-04-25 12:14 | 32.03446 | 49.22289 | 15425 ft | 365 kts | 11° |
| 2026-04-25 12:14 | 32.05910 | 49.23016 | 15766 ft | 366 kts | 11° |
| 2026-04-25 12:14 | 32.08385 | 49.23748 | 16123 ft | 367 kts | 11° |
| 2026-04-25 12:14 | 32.10873 | 49.24485 | 16413 ft | 369 kts | 11° |
| 2026-04-25 12:15 | 32.13367 | 49.25231 | 16697 ft | 372 kts | 11° |
| 2026-04-25 12:15 | 32.15888 | 49.25983 | 16964 ft | 374 kts | 11° |
| 2026-04-25 12:15 | 32.18398 | 49.26703 | 17242 ft | 376 kts | 10° |
| 2026-04-25 12:15 | 32.20945 | 49.27434 | 17556 ft | 378 kts | 10° |
| 2026-04-25 12:16 | 32.23509 | 49.28179 | 17842 ft | 380 kts | 11° |
| 2026-04-25 12:16 | 32.26075 | 49.28950 | 18147 ft | 382 kts | 10° |
| 2026-04-25 12:16 | 32.28658 | 49.29706 | 18409 ft | 383 kts | 10° |
| 2026-04-25 12:16 | 32.31244 | 49.30463 | 18690 ft | 383 kts | 10° |
| 2026-04-25 12:17 | 32.33844 | 49.31228 | 18921 ft | 386 kts | 10° |
| 2026-04-25 12:17 | 32.36454 | 49.32006 | 19149 ft | 388 kts | 10° |
| 2026-04-25 12:17 | 32.39082 | 49.32787 | 19361 ft | 390 kts | 10° |
| 2026-04-25 12:17 | 32.41688 | 49.33571 | 19571 ft | 392 kts | 10° |
| 2026-04-25 12:18 | 32.44339 | 49.34360 | 19800 ft | 394 kts | 10° |
| 2026-04-25 12:18 | 32.47005 | 49.35137 | 20035 ft | 396 kts | 9° |
| 2026-04-25 12:18 | 32.49685 | 49.35916 | 20242 ft | 398 kts | 10° |
| 2026-04-25 12:18 | 32.52382 | 49.36724 | 20448 ft | 401 kts | 10° |
| 2026-04-25 12:19 | 32.56891 | 49.38047 | 20849 ft | 403 kts | 9° |
| 2026-04-25 12:19 | 32.60508 | 49.39103 | 21184 ft | 406 kts | 10° |
| 2026-04-25 12:19 | 32.63254 | 49.39935 | 21451 ft | 409 kts | 10° |
| 2026-04-25 12:20 | 32.66014 | 49.40766 | 21615 ft | 410 kts | 9° |
| 2026-04-25 12:20 | 32.68781 | 49.41579 | 21794 ft | 411 kts | 9° |
| 2026-04-25 12:20 | 32.71568 | 49.42390 | 21957 ft | 413 kts | 9° |
| 2026-04-25 12:20 | 32.74372 | 49.43214 | 21989 ft | 416 kts | 9° |
| 2026-04-25 12:21 | 32.77177 | 49.44041 | 22323 ft | 414 kts | 9° |
| 2026-04-25 12:21 | 32.79968 | 49.44888 | 22575 ft | 416 kts | 10° |
| 2026-04-25 12:21 | 32.82780 | 49.45748 | 22736 ft | 418 kts | 9° |
| 2026-04-25 12:21 | 32.85563 | 49.46571 | 23013 ft | 419 kts | 9° |
| 2026-04-25 12:22 | 32.88398 | 49.47407 | 23203 ft | 421 kts | 9° |
| 2026-04-25 12:22 | 32.91251 | 49.48247 | 23408 ft | 422 kts | 9° |
| 2026-04-25 12:22 | 32.94103 | 49.49086 | 23632 ft | 424 kts | 9° |
| 2026-04-25 12:22 | 32.96972 | 49.49939 | 23791 ft | 426 kts | 9° |
| 2026-04-25 12:23 | 32.99848 | 49.50820 | 23993 ft | 426 kts | 10° |
| 2026-04-25 12:23 | 33.02722 | 49.51696 | 24141 ft | 427 kts | 9° |
| 2026-04-25 12:23 | 33.05606 | 49.52554 | 24307 ft | 428 kts | 9° |
| 2026-04-25 12:23 | 33.08508 | 49.53413 | 24416 ft | 431 kts | 9° |
| 2026-04-25 12:24 | 33.11420 | 49.54275 | 24542 ft | 432 kts | 9° |
| 2026-04-25 12:24 | 33.14301 | 49.55140 | 24692 ft | 433 kts | 9° |
| 2026-04-25 12:24 | 33.17231 | 49.56036 | 24800 ft | 436 kts | 10° |
| 2026-04-25 12:24 | 33.20170 | 49.56936 | 24958 ft | 437 kts | 9° |
| 2026-04-25 12:25 | 33.23126 | 49.57811 | 25151 ft | 437 kts | 9° |
| 2026-04-25 12:25 | 33.26072 | 49.58681 | 25317 ft | 437 kts | 9° |
| 2026-04-25 12:25 | 33.29023 | 49.59576 | 25488 ft | 438 kts | 10° |
| 2026-04-25 12:25 | 33.31977 | 49.60485 | 25675 ft | 438 kts | 10° |
| 2026-04-25 12:26 | 33.34899 | 49.61357 | 25871 ft | 438 kts | 9° |
| 2026-04-25 12:26 | 33.37857 | 49.62234 | 26059 ft | 438 kts | 10° |
| 2026-04-25 12:26 | 33.40809 | 49.63141 | 26231 ft | 439 kts | 10° |
| 2026-04-25 12:26 | 33.43773 | 49.64043 | 26431 ft | 439 kts | 9° |
| 2026-04-25 12:27 | 33.46727 | 49.64924 | 26658 ft | 439 kts | 10° |
| 2026-04-25 12:27 | 33.49708 | 49.65832 | 26869 ft | 440 kts | 10° |
| 2026-04-25 12:27 | 33.52672 | 49.66746 | 27070 ft | 440 kts | 10° |
| 2026-04-25 12:27 | 33.55595 | 49.67623 | 27286 ft | 439 kts | 9° |
| 2026-04-25 12:28 | 33.58562 | 49.68506 | 27485 ft | 439 kts | 9° |
| 2026-04-25 12:28 | 33.61526 | 49.69405 | 27677 ft | 440 kts | 10° |
| 2026-04-25 12:28 | 33.64488 | 49.70324 | 27852 ft | 440 kts | 10° |
| 2026-04-25 12:28 | 33.67460 | 49.71228 | 28054 ft | 440 kts | 9° |
| 2026-04-25 12:29 | 33.70430 | 49.72116 | 28206 ft | 441 kts | 9° |
| 2026-04-25 12:29 | 33.73406 | 49.73013 | 28371 ft | 441 kts | 10° |
| 2026-04-25 12:29 | 33.76373 | 49.73935 | 28610 ft | 441 kts | 10° |
| 2026-04-25 12:29 | 33.79307 | 49.74840 | 28780 ft | 441 kts | 9° |
| 2026-04-25 12:30 | 33.81321 | 49.75447 | 28888 ft | 441 kts | 9° |
| 2026-04-25 12:30 | 33.85263 | 49.76634 | 29119 ft | 442 kts | 9° |
| 2026-04-25 12:30 | 33.88251 | 49.77533 | 29291 ft | 442 kts | 9° |
| 2026-04-25 12:30 | 33.91221 | 49.78444 | 29471 ft | 442 kts | 10° |
| 2026-04-25 12:31 | 33.94195 | 49.79375 | 29686 ft | 441 kts | 10° |
| 2026-04-25 12:31 | 33.99130 | 49.80898 | 29848 ft | 441 kts | 9° |
| 2026-04-25 12:31 | 34.02105 | 49.81792 | 30020 ft | 440 kts | 9° |
| 2026-04-25 12:32 | 34.06035 | 49.82988 | 30201 ft | 440 kts | 10° |
| 2026-04-25 12:32 | 34.09007 | 49.83922 | 30310 ft | 441 kts | 10° |
| 2026-04-25 12:32 | 34.11976 | 49.84870 | 30334 ft | 445 kts | 12° |
| 2026-04-25 12:33 | 34.16838 | 49.87009 | 30498 ft | 449 kts | 21° |
| 2026-04-25 12:33 | 34.22478 | 49.90275 | 30699 ft | 450 kts | 24° |
| 2026-04-25 12:33 | 34.25278 | 49.91983 | 30817 ft | 450 kts | 24° |
| 2026-04-25 12:34 | 34.28083 | 49.93678 | 30931 ft | 450 kts | 24° |
| 2026-04-25 12:34 | 34.31803 | 49.95890 | 31088 ft | 449 kts | 23° |
| 2026-04-25 12:34 | 34.33693 | 49.96994 | 31115 ft | 444 kts | 23° |
| 2026-04-25 12:35 | 34.39200 | 50.00174 | 31164 ft | 442 kts | 23° |
| 2026-04-25 12:35 | 34.44753 | 50.03428 | 31162 ft | 445 kts | 23° |
| 2026-04-25 12:36 | 34.50346 | 50.06725 | 31152 ft | 447 kts | 23° |
| 2026-04-25 12:36 | 34.55946 | 50.09983 | 31160 ft | 447 kts | 23° |
| 2026-04-25 12:37 | 34.61495 | 50.13269 | 31129 ft | 447 kts | 24° |
| 2026-04-25 12:37 | 34.67098 | 50.16541 | 31120 ft | 448 kts | 23° |
| 2026-04-25 12:38 | 34.72714 | 50.19868 | 31096 ft | 449 kts | 24° |
| 2026-04-25 12:38 | 34.78357 | 50.23207 | 30645 ft | 458 kts | 24° |
| 2026-04-25 12:38 | 34.81209 | 50.24901 | 30088 ft | 456 kts | 24° |
| 2026-04-25 12:39 | 34.84018 | 50.26566 | 29426 ft | 454 kts | 23° |
| 2026-04-25 12:39 | 34.86863 | 50.28226 | 28775 ft | 453 kts | 23° |
| 2026-04-25 12:39 | 34.89699 | 50.29887 | 28172 ft | 454 kts | 24° |
| 2026-04-25 12:39 | 34.92539 | 50.31572 | 27584 ft | 453 kts | 24° |
| 2026-04-25 12:40 | 34.95359 | 50.33259 | 27004 ft | 451 kts | 24° |
| 2026-04-25 12:40 | 34.98186 | 50.34958 | 26445 ft | 451 kts | 25° |
| 2026-04-25 12:40 | 35.00898 | 50.36840 | 25882 ft | 451 kts | 30° |
| 2026-04-25 12:40 | 35.03452 | 50.39080 | 25342 ft | 452 kts | 38° |
| 2026-04-25 12:41 | 35.05758 | 50.41618 | 24822 ft | 452 kts | 43° |
| 2026-04-25 12:41 | 35.07968 | 50.44354 | 24297 ft | 452 kts | 45° |
| 2026-04-25 12:41 | 35.10126 | 50.47135 | 23789 ft | 452 kts | 46° |
| 2026-04-25 12:41 | 35.12282 | 50.49931 | 23215 ft | 450 kts | 46° |
| 2026-04-25 12:42 | 35.14422 | 50.52678 | 22598 ft | 443 kts | 45° |
| 2026-04-25 12:42 | 35.15832 | 50.54465 | 22200 ft | 440 kts | 45° |
| 2026-04-25 12:42 | 35.18667 | 50.58034 | 21417 ft | 433 kts | 44° |
| 2026-04-25 12:42 | 35.20769 | 50.60631 | 20836 ft | 427 kts | 44° |
| 2026-04-25 12:43 | 35.22846 | 50.63196 | 20274 ft | 421 kts | 44° |
| 2026-04-25 12:43 | 35.24879 | 50.65730 | 19723 ft | 415 kts | 45° |
| 2026-04-25 12:43 | 35.28814 | 50.70699 | 18641 ft | 403 kts | 44° |
| 2026-04-25 12:44 | 35.30758 | 50.73128 | 18073 ft | 397 kts | 44° |
| 2026-04-25 12:44 | 35.32684 | 50.75528 | 17463 ft | 393 kts | 44° |
| 2026-04-25 12:44 | 35.36486 | 50.80263 | 16280 ft | 386 kts | 44° |
| 2026-04-25 12:45 | 35.38335 | 50.82575 | 15712 ft | 383 kts | 44° |
| 2026-04-25 12:45 | 35.40183 | 50.84901 | 15150 ft | 380 kts | 44° |
| 2026-04-25 12:45 | 35.43739 | 50.89614 | 14092 ft | 373 kts | 55° |
| 2026-04-25 12:46 | 35.44790 | 50.92486 | 13637 ft | 369 kts | 72° |
| 2026-04-25 12:46 | 35.45453 | 50.95504 | 13144 ft | 365 kts | 76° |
| 2026-04-25 12:46 | 35.45986 | 50.98533 | 12661 ft | 361 kts | 78° |
| 2026-04-25 12:46 | 35.46445 | 51.01540 | 12184 ft | 357 kts | 79° |
| 2026-04-25 12:47 | 35.46857 | 51.04392 | 11862 ft | 326 kts | 79° |
| 2026-04-25 12:47 | 35.47233 | 51.07078 | 11303 ft | 312 kts | 80° |
| 2026-04-25 12:47 | 35.47594 | 51.09667 | 10901 ft | 304 kts | 80° |
| 2026-04-25 12:47 | 35.47967 | 51.12204 | 10548 ft | 301 kts | 79° |
| 2026-04-25 12:48 | 35.48346 | 51.14723 | 10193 ft | 299 kts | 79° |
| 2026-04-25 12:48 | 35.48729 | 51.17226 | 9842 ft | 297 kts | 79° |
| 2026-04-25 12:48 | 35.49112 | 51.19702 | 9463 ft | 295 kts | 79° |
| 2026-04-25 12:48 | 35.49495 | 51.22166 | 9149 ft | 293 kts | 79° |
| 2026-04-25 12:49 | 35.49872 | 51.24591 | 8834 ft | 293 kts | 79° |
| 2026-04-25 12:49 | 35.50255 | 51.27040 | 8536 ft | 291 kts | 79° |
| 2026-04-25 12:49 | 35.50630 | 51.29451 | 8256 ft | 290 kts | 79° |
| 2026-04-25 12:49 | 35.50992 | 51.31885 | 8063 ft | 289 kts | 79° |
| 2026-04-25 12:50 | 35.51362 | 51.34302 | 8026 ft | 289 kts | 78° |
| 2026-04-25 12:50 | 35.51592 | 51.36762 | 8008 ft | 291 kts | 92° |
| 2026-04-25 12:50 | 35.51352 | 51.39205 | 8008 ft | 292 kts | 99° |
| 2026-04-25 12:50 | 35.51002 | 51.41639 | 8004 ft | 290 kts | 101° |
| 2026-04-25 12:51 | 35.50611 | 51.44076 | 8001 ft | 290 kts | 102° |
| 2026-04-25 12:51 | 35.50261 | 51.46502 | 7990 ft | 289 kts | 91° |
| 2026-04-25 12:51 | 35.50736 | 51.48865 | 8001 ft | 288 kts | 58° |
| 2026-04-25 12:51 | 35.52035 | 51.50709 | 8011 ft | 282 kts | 41° |
| 2026-04-25 12:52 | 35.53514 | 51.52201 | 8000 ft | 270 kts | 36° |
| 2026-04-25 12:52 | 35.55158 | 51.53154 | 7992 ft | 258 kts | 6° |
| 2026-04-25 12:52 | 35.56928 | 51.52882 | 7660 ft | 263 kts | 333° |
| 2026-04-25 12:52 | 35.58464 | 51.51661 | 7308 ft | 265 kts | 323° |
| 2026-04-25 12:53 | 35.59961 | 51.50423 | 6944 ft | 252 kts | 326° |
| 2026-04-25 12:53 | 35.61403 | 51.49370 | 6661 ft | 235 kts | 329° |
| 2026-04-25 12:53 | 35.62774 | 51.48472 | 6579 ft | 215 kts | 332° |
| 2026-04-25 12:53 | 35.63896 | 51.47319 | 6566 ft | 211 kts | 303° |
| 2026-04-25 12:54 | 35.64538 | 51.45823 | 6543 ft | 188 kts | 292° |
| 2026-04-25 12:54 | 35.65031 | 51.44349 | 6519 ft | 187 kts | 290° |
| 2026-04-25 12:54 | 35.65501 | 51.42819 | 6286 ft | 196 kts | 289° |
| 2026-04-25 12:54 | 35.65959 | 51.41295 | 6024 ft | 180 kts | 289° |
| 2026-04-25 12:55 | 35.66394 | 51.39877 | 5478 ft | 173 kts | 289° |
| 2026-04-25 12:55 | 35.66656 | 51.38997 | 5247 ft | 160 kts | 288° |
| 2026-04-25 12:55 | 35.67159 | 51.37331 | 4634 ft | 148 kts | 287° |
| 2026-04-25 12:55 | 35.67463 | 51.36213 | 4356 ft | 133 kts | 285° |
| 2026-04-25 12:56 | 35.67758 | 51.35126 | 4175 ft | 138 kts | 286° |
| 2026-04-25 12:56 | 35.68064 | 51.34032 | 3961 ft | 132 kts | 287° |
| 2026-04-25 12:56 | 35.68356 | 51.32999 | 3827 ft | 122 kts | 286° |
| 2026-04-25 12:56 | 35.68600 | 51.32130 | 3845 ft | 89 kts | 287° |
| 2026-04-25 12:57 | 35.68764 | 51.31576 | 3867 ft | 39 kts | 289° |
| 2026-04-25 12:57 | 35.68833 | 51.31334 | 3878 ft | 26 kts | 290° |
| 2026-04-25 12:57 | 35.68887 | 51.31156 | 3884 ft | 18 kts | 290° |
| 2026-04-25 12:57 | 35.68921 | 51.31041 | 3891 ft | 11 kts | 290° |
| 2026-04-25 12:58 | 35.68941 | 51.30973 | 3894 ft | 8 kts | 290° |
| 2026-04-25 12:58 | 35.68958 | 51.30913 | 3896 ft | 7 kts | 290° |
| 2026-04-25 12:58 | 35.68976 | 51.30854 | 3899 ft | 8 kts | 290° |
| 2026-04-25 12:58 | 35.69012 | 51.30798 | 3901 ft | 11 kts | 346° |
| 2026-04-25 12:59 | 35.69090 | 51.30824 | 3908 ft | 10 kts | 22° |
| 2026-04-25 12:59 | 35.69135 | 51.30847 | 3919 ft | 4 kts | 22° |
| 2026-04-25 12:59 | 35.69159 | 51.30859 | 3923 ft | 5 kts | 21° |
| 2026-04-25 12:59 | 35.69228 | 51.30888 | 3923 ft | 12 kts | 18° |
| 2026-04-25 13:00 | 35.69256 | 51.30952 | 3924 ft | 10 kts | 109° |
| 2026-04-25 13:00 | 35.69240 | 51.31009 | 3922 ft | 11 kts | 109° |
| 2026-04-25 13:00 | 35.69204 | 51.31132 | 3917 ft | 11 kts | 111° |
| 2026-04-25 13:00 | 35.69186 | 51.31206 | 3914 ft | 9 kts | 88° |
| 2026-04-25 13:01 | 35.69193 | 51.31224 | 3914 ft | 0 kts | 23° |
| 2026-04-25 13:01 | 35.69198 | 51.31224 | 3914 ft | 1 kts | 348° |
| 2026-04-25 13:01 | 35.69210 | 51.31222 | 3915 ft | 3 kts | 357° |
| 2026-04-25 13:01 | 35.69224 | 51.31224 | 3916 ft | 2 kts | 17° |
| 2026-04-25 13:02 | 35.69238 | 51.31230 | 3917 ft | 1 kts | 18° |
| 2026-04-25 13:02 | 35.69242 | 51.31232 | 3917 ft | 2 kts | 18° |
| 2026-04-25 13:02 | 35.69244 | 51.31232 | 3917 ft | 0 kts | 18° |